createdAt,value
2022-09-02T00:00:53.004Z,9.73
2022-09-02T00:02:05.243Z,9.30
2022-09-02T00:03:17.589Z,9.10
2022-09-02T00:04:29.221Z,9.40
2022-09-02T00:05:41.188Z,9.27
2022-09-02T00:06:54.032Z,9.27
2022-09-02T00:08:06.041Z,8.70
2022-09-02T00:09:19.021Z,8.87
2022-09-02T00:10:30.584Z,8.80
2022-09-02T00:11:42.839Z,9.90
2022-09-02T00:12:57.452Z,8.63
2022-09-02T00:14:11.156Z,9.40
2022-09-02T00:15:23.164Z,8.67
2022-09-02T00:16:37.152Z,8.57
2022-09-02T00:17:48.661Z,9.20
2022-09-02T00:19:02.591Z,9.10
2022-09-02T00:20:14.581Z,9.57
2022-09-02T00:21:26.864Z,10.20
2022-09-02T00:22:38.414Z,10.27
2022-09-02T00:23:49.984Z,9.33
2022-09-02T00:25:01.500Z,9.73
2022-09-02T00:26:13.730Z,9.40
2022-09-02T00:27:25.736Z,10.00
2022-09-02T00:28:37.413Z,9.73
2022-09-02T00:29:49.487Z,10.33
2022-09-02T00:31:01.080Z,10.10
2022-09-02T00:32:12.617Z,9.30
2022-09-02T00:33:24.099Z,10.03
2022-09-02T00:34:35.928Z,9.53
2022-09-02T00:35:47.508Z,8.30
2022-09-02T00:36:59.051Z,8.60
2022-09-02T00:38:10.685Z,9.30
2022-09-02T00:39:22.233Z,10.13
2022-09-02T00:40:34.312Z,8.93
2022-09-02T00:41:46.036Z,9.40
2022-09-02T00:42:57.610Z,9.73
2022-09-02T00:44:10.668Z,9.97
2022-09-02T00:45:23.727Z,9.13
2022-09-02T00:46:35.343Z,9.60
2022-09-02T00:47:47.327Z,9.10
2022-09-02T00:48:59.076Z,8.73
2022-09-02T00:50:11.793Z,9.63
2022-09-02T00:51:23.472Z,9.47
2022-09-02T00:52:37.492Z,9.30
2022-09-02T00:53:49.988Z,9.37
2022-09-02T00:55:21.769Z,9.17
2022-09-02T00:56:33.868Z,9.10
2022-09-02T00:57:50.269Z,10.00
2022-09-02T00:59:01.820Z,8.80
2022-09-02T01:00:18.876Z,10.00
2022-09-02T01:01:30.512Z,9.80
2022-09-02T01:02:42.551Z,11.20
2022-09-02T01:03:54.136Z,9.33
2022-09-02T01:05:08.088Z,11.37
2022-09-02T01:06:24.496Z,10.57
2022-09-02T01:07:38.159Z,10.23
2022-09-02T01:08:54.275Z,11.10
2022-09-02T01:10:10.547Z,10.17
2022-09-02T01:11:23.084Z,10.50
2022-09-02T01:12:35.688Z,10.70
2022-09-02T01:13:47.968Z,9.80
2022-09-02T01:14:59.639Z,11.27
2022-09-02T01:16:17.047Z,10.13
2022-09-02T01:17:29.176Z,10.67
2022-09-02T01:18:44.128Z,10.30
2022-09-02T01:19:58.042Z,10.40
2022-09-02T01:21:09.560Z,10.40
2022-09-02T01:22:22.964Z,10.23
2022-09-02T01:23:34.994Z,11.83
2022-09-02T01:24:46.924Z,11.23
2022-09-02T01:25:58.687Z,10.90
2022-09-02T01:27:14.174Z,10.63
2022-09-02T01:28:27.866Z,10.47
2022-09-02T01:29:39.572Z,11.00
2022-09-02T01:30:52.513Z,11.27
2022-09-02T01:32:04.037Z,10.70
2022-09-02T01:33:16.117Z,11.20
2022-09-02T01:34:29.240Z,11.77
2022-09-02T01:35:40.761Z,10.93
2022-09-02T01:36:52.265Z,9.63
2022-09-02T01:38:04.325Z,10.93
2022-09-02T01:39:16.159Z,10.23
2022-09-02T01:40:28.428Z,10.47
2022-09-02T01:41:40.349Z,11.10
2022-09-02T01:42:54.707Z,10.63
2022-09-02T01:44:06.672Z,10.73
2022-09-02T01:45:18.184Z,10.10
2022-09-02T01:46:29.739Z,10.13
2022-09-02T01:47:41.427Z,9.10
2022-09-02T01:48:52.884Z,10.13
2022-09-02T01:50:08.191Z,10.47
2022-09-02T01:51:20.692Z,11.27
2022-09-02T01:52:32.443Z,11.23
2022-09-02T01:53:44.380Z,9.70
2022-09-02T01:54:55.960Z,10.50
2022-09-02T01:56:07.442Z,10.77
2022-09-02T01:57:19.124Z,10.10
2022-09-02T01:58:30.639Z,9.80
2022-09-02T01:59:43.829Z,10.13
2022-09-02T02:00:55.408Z,10.63
2022-09-02T02:02:07.175Z,10.43
2022-09-02T02:03:19.555Z,10.33
2022-09-02T02:04:31.236Z,10.30
2022-09-02T02:05:43.133Z,10.33
2022-09-02T02:06:55.099Z,11.00
2022-09-02T02:08:06.672Z,10.13
2022-09-02T02:09:18.201Z,10.20
2022-09-02T02:10:29.891Z,10.33
2022-09-02T02:11:41.734Z,10.77
2022-09-02T02:12:53.328Z,10.53
2022-09-02T02:14:05.984Z,10.70
2022-09-02T02:15:18.813Z,9.63
2022-09-02T02:16:30.338Z,10.97
2022-09-02T02:17:42.022Z,10.57
2022-09-02T02:18:53.529Z,10.43
2022-09-02T02:20:05.856Z,10.00
2022-09-02T02:21:17.364Z,10.43
2022-09-02T02:22:29.253Z,9.47
2022-09-02T02:23:40.738Z,10.73
2022-09-02T02:24:52.199Z,9.57
2022-09-02T02:26:03.731Z,9.33
2022-09-02T02:27:15.393Z,9.83
2022-09-02T02:28:26.911Z,9.33
2022-09-02T02:29:38.444Z,9.60
2022-09-02T02:30:49.952Z,10.17
2022-09-02T02:32:01.503Z,8.90
2022-09-02T02:33:13.627Z,9.90
2022-09-02T02:34:25.578Z,10.23
2022-09-02T02:35:37.073Z,9.57
2022-09-02T02:36:48.537Z,9.00
2022-09-02T02:38:02.836Z,8.97
2022-09-02T02:39:15.417Z,9.50
2022-09-02T02:40:27.064Z,11.13
2022-09-02T02:41:39.306Z,9.53
2022-09-02T02:42:53.700Z,8.87
2022-09-02T02:44:05.195Z,10.40
2022-09-02T02:45:16.754Z,9.07
2022-09-02T02:46:31.163Z,9.27
2022-09-02T02:47:43.204Z,8.60
2022-09-02T02:48:54.733Z,9.80
2022-09-02T02:50:07.644Z,9.33
2022-09-02T02:51:19.561Z,10.67
2022-09-02T02:52:31.032Z,9.77
2022-09-02T02:53:42.671Z,9.40
2022-09-02T02:54:54.209Z,9.37
2022-09-02T02:56:06.028Z,9.50
2022-09-02T02:57:17.541Z,9.60
2022-09-02T02:58:29.260Z,9.70
2022-09-02T02:59:40.784Z,9.17
2022-09-02T03:00:52.336Z,9.70
2022-09-02T03:02:04.945Z,10.53
2022-09-02T03:03:19.940Z,10.63
2022-09-02T03:04:31.570Z,10.00
2022-09-02T03:05:43.054Z,9.30
2022-09-02T03:06:54.535Z,10.03
2022-09-02T03:08:07.527Z,9.83
2022-09-02T03:09:20.455Z,10.20
2022-09-02T03:10:32.857Z,9.63
2022-09-02T03:11:44.690Z,9.43
2022-09-02T03:12:56.153Z,9.93
2022-09-02T03:14:08.141Z,9.73
2022-09-02T03:15:20.900Z,10.87
2022-09-02T03:16:33.952Z,9.40
2022-09-02T03:17:45.901Z,9.67
2022-09-02T03:18:57.477Z,9.90
2022-09-02T03:20:09.273Z,8.87
2022-09-02T03:21:20.931Z,8.33
2022-09-02T03:22:32.393Z,9.87
2022-09-02T03:23:44.513Z,10.03
2022-09-02T03:24:56.204Z,10.07
2022-09-02T03:26:12.013Z,9.00
2022-09-02T03:27:23.597Z,8.93
2022-09-02T03:28:35.092Z,8.97
2022-09-02T03:29:46.592Z,9.13
2022-09-02T03:30:58.107Z,9.67
2022-09-02T03:32:09.644Z,9.17
2022-09-02T03:33:21.119Z,10.60
2022-09-02T03:34:33.147Z,11.97
2022-09-02T03:35:45.464Z,13.33
2022-09-02T03:36:57.015Z,15.47
2022-09-02T03:38:09.226Z,14.70
2022-09-02T03:39:21.268Z,14.97
2022-09-02T03:40:33.145Z,16.73
2022-09-02T03:41:44.975Z,15.10
2022-09-02T03:43:00.158Z,13.77
2022-09-02T03:44:12.116Z,13.07
2022-09-02T03:45:23.906Z,10.60
2022-09-02T03:46:35.456Z,10.93
2022-09-02T03:47:54.391Z,9.93
2022-09-02T03:49:05.904Z,10.07
2022-09-02T03:50:18.445Z,10.23
2022-09-02T03:51:30.047Z,9.40
2022-09-02T03:52:41.536Z,10.03
2022-09-02T03:53:53.510Z,10.20
2022-09-02T03:55:05.669Z,9.93
2022-09-02T03:56:18.751Z,10.60
2022-09-02T03:57:30.277Z,9.90
2022-09-02T03:58:42.816Z,8.63
2022-09-02T03:59:54.331Z,9.33
2022-09-02T04:01:06.033Z,10.47
2022-09-02T04:02:18.481Z,10.67
2022-09-02T04:03:30.128Z,9.30
2022-09-02T04:04:41.597Z,9.87
2022-09-02T04:05:53.116Z,9.57
2022-09-02T04:07:04.656Z,10.33
2022-09-02T04:08:16.600Z,10.63
2022-09-02T04:09:28.131Z,9.90
2022-09-02T04:10:39.695Z,9.93
2022-09-02T04:11:51.449Z,11.37
2022-09-02T04:13:02.908Z,9.50
2022-09-02T04:14:14.772Z,9.77
2022-09-02T04:15:26.400Z,10.07
2022-09-02T04:16:38.396Z,10.90
2022-09-02T04:17:49.953Z,8.97
2022-09-02T04:19:03.224Z,10.47
2022-09-02T04:20:14.862Z,10.53
2022-09-02T04:21:26.804Z,11.30
2022-09-02T04:22:38.543Z,10.60
2022-09-02T04:23:50.106Z,9.60
2022-09-02T04:25:01.724Z,10.63
2022-09-02T04:26:15.125Z,10.63
2022-09-02T04:27:26.774Z,11.03
2022-09-02T04:28:38.284Z,11.97
2022-09-02T04:29:50.041Z,10.27
2022-09-02T04:31:06.141Z,11.43
2022-09-02T04:32:17.681Z,12.60
2022-09-02T04:33:29.187Z,12.67
2022-09-02T04:34:40.666Z,40.90
2022-09-02T04:35:52.511Z,58.77
2022-09-02T04:37:04.015Z,62.47
2022-09-02T04:38:16.593Z,23.33
2022-09-02T04:39:28.124Z,29.90
2022-09-02T04:40:41.016Z,17.70
2022-09-02T04:41:53.949Z,15.00
2022-09-02T04:43:05.441Z,14.07
2022-09-02T04:44:16.919Z,13.97
2022-09-02T04:45:29.979Z,13.60
2022-09-02T04:46:41.627Z,13.23
2022-09-02T04:47:53.213Z,15.80
2022-09-02T04:49:04.932Z,14.53
2022-09-02T04:50:16.567Z,15.20
2022-09-02T04:51:28.087Z,13.27
2022-09-02T04:52:39.564Z,15.73
2022-09-02T04:53:52.412Z,13.23
2022-09-02T04:55:04.083Z,19.07
2022-09-02T04:56:17.354Z,38.10
2022-09-02T04:57:28.837Z,24.30
2022-09-02T04:58:40.964Z,19.67
2022-09-02T04:59:53.029Z,15.37
2022-09-02T05:01:08.878Z,16.23
2022-09-02T05:02:20.729Z,14.10
2022-09-02T05:03:32.431Z,15.37
2022-09-02T05:04:43.925Z,16.93
2022-09-02T05:06:01.145Z,17.20
2022-09-02T05:07:12.752Z,17.47
2022-09-02T05:08:24.460Z,17.20
2022-09-02T05:09:36.106Z,16.03
2022-09-02T05:10:50.130Z,15.43
2022-09-02T05:12:04.443Z,14.43
2022-09-02T05:13:16.264Z,13.93
2022-09-02T05:14:30.847Z,13.67
2022-09-02T05:15:43.607Z,13.33
2022-09-02T05:16:55.224Z,13.90
2022-09-02T05:18:06.696Z,13.87
2022-09-02T05:19:18.169Z,14.20
2022-09-02T05:20:29.724Z,14.13
2022-09-02T05:21:41.765Z,13.67
2022-09-02T05:22:53.287Z,14.23
2022-09-02T05:24:04.839Z,13.73
2022-09-02T05:25:16.406Z,13.37
2022-09-02T05:26:27.992Z,14.00
2022-09-02T05:27:39.473Z,13.43
2022-09-02T05:28:51.281Z,12.03
2022-09-02T05:30:03.534Z,12.20
2022-09-02T05:31:17.785Z,13.00
2022-09-02T05:32:30.329Z,12.97
2022-09-02T05:33:43.180Z,13.13
2022-09-02T05:34:56.187Z,13.27
2022-09-02T05:36:08.773Z,13.17
2022-09-02T05:37:20.557Z,11.63
2022-09-02T05:38:32.286Z,13.13
2022-09-02T05:39:43.994Z,13.97
2022-09-02T05:40:56.177Z,11.93
2022-09-02T05:42:07.821Z,13.87
2022-09-02T05:43:19.392Z,13.70
2022-09-02T05:44:31.457Z,13.70
2022-09-02T05:45:43.003Z,12.67
2022-09-02T05:46:55.751Z,12.83
2022-09-02T05:48:27.200Z,12.80
2022-09-02T05:49:38.782Z,11.93
2022-09-02T05:50:50.490Z,11.40
2022-09-02T05:52:10.367Z,13.87
2022-09-02T05:53:21.998Z,12.37
2022-09-02T05:54:34.524Z,11.87
2022-09-02T05:55:46.074Z,12.17
2022-09-02T05:56:59.092Z,12.30
2022-09-02T05:58:10.577Z,11.40
2022-09-02T05:59:22.919Z,13.13
2022-09-02T06:00:34.414Z,14.37
2022-09-02T06:01:46.271Z,12.43
2022-09-02T06:02:58.771Z,13.00
2022-09-02T06:04:10.311Z,13.10
2022-09-02T06:05:22.083Z,12.20
2022-09-02T06:06:34.761Z,14.60
2022-09-02T06:07:46.250Z,13.80
2022-09-02T06:08:58.435Z,13.23
2022-09-02T06:10:09.974Z,11.83
2022-09-02T06:11:22.235Z,12.33
2022-09-02T06:12:33.859Z,11.70
2022-09-02T06:13:45.930Z,13.17
2022-09-02T06:14:57.468Z,13.83
2022-09-02T06:16:10.712Z,13.20
2022-09-02T06:17:22.256Z,13.77
2022-09-02T06:18:33.761Z,12.97
2022-09-02T06:19:45.307Z,15.33
2022-09-02T06:20:56.852Z,13.70
2022-09-02T06:22:08.458Z,13.70
2022-09-02T06:23:23.001Z,13.30
2022-09-02T06:24:34.542Z,14.80
2022-09-02T06:25:47.042Z,13.23
2022-09-02T06:26:59.445Z,11.83
2022-09-02T06:28:11.153Z,12.40
2022-09-02T06:29:24.113Z,12.90
2022-09-02T06:30:35.598Z,13.87
2022-09-02T06:31:48.579Z,13.03
2022-09-02T06:33:02.445Z,13.80
2022-09-02T06:34:16.291Z,13.00
2022-09-02T06:35:27.744Z,12.50
2022-09-02T06:36:39.785Z,14.07
2022-09-02T06:37:51.364Z,14.33
2022-09-02T06:39:02.990Z,14.47
2022-09-02T06:40:15.036Z,14.33
2022-09-02T06:41:28.764Z,14.10
2022-09-02T06:42:40.413Z,14.33
2022-09-02T06:43:51.911Z,13.50
2022-09-02T06:45:06.061Z,13.83
2022-09-02T06:46:18.595Z,13.87
2022-09-02T06:47:31.738Z,13.57
2022-09-02T06:48:43.479Z,13.30
2022-09-02T06:49:54.984Z,13.40
2022-09-02T06:51:06.680Z,13.10
2022-09-02T06:52:18.165Z,14.13
2022-09-02T06:53:29.770Z,14.97
2022-09-02T06:54:41.254Z,16.93
2022-09-02T06:55:52.837Z,14.60
2022-09-02T06:57:04.392Z,13.67
2022-09-02T06:58:15.935Z,15.00
2022-09-02T06:59:27.413Z,13.87
2022-09-02T07:00:39.527Z,12.70
2022-09-02T07:01:51.410Z,13.93
2022-09-02T07:03:22.329Z,13.23
2022-09-02T07:04:54.363Z,14.20
2022-09-02T07:06:10.234Z,14.77
2022-09-02T07:07:21.735Z,12.63
2022-09-02T07:08:33.280Z,13.30
2022-09-02T07:09:44.924Z,13.40
2022-09-02T07:10:56.411Z,13.13
2022-09-02T07:12:08.618Z,13.80
2022-09-02T07:13:20.274Z,13.80
2022-09-02T07:14:31.855Z,13.93
2022-09-02T07:15:43.344Z,14.27
2022-09-02T07:16:57.513Z,15.20
2022-09-02T07:18:09.102Z,13.30
2022-09-02T07:19:20.992Z,14.33
2022-09-02T07:20:32.746Z,13.57
2022-09-02T07:21:44.340Z,13.30
2022-09-02T07:22:56.716Z,14.57
2022-09-02T07:24:09.365Z,14.73
2022-09-02T07:25:21.081Z,13.43
2022-09-02T07:26:32.962Z,13.57
2022-09-02T07:27:44.724Z,13.57
2022-09-02T07:28:56.299Z,14.00
2022-09-02T07:30:08.104Z,14.33
2022-09-02T07:31:19.683Z,13.80
2022-09-02T07:32:31.402Z,15.17
2022-09-02T07:33:45.065Z,14.57
2022-09-02T07:35:01.751Z,14.23
2022-09-02T07:36:14.022Z,14.20
2022-09-02T07:37:25.497Z,14.10
2022-09-02T07:38:37.031Z,16.83
2022-09-02T07:39:48.941Z,15.77
2022-09-02T07:41:00.949Z,15.60
2022-09-02T07:42:13.001Z,14.20
2022-09-02T07:43:24.621Z,16.97
2022-09-02T07:44:36.774Z,17.07
2022-09-02T07:45:51.039Z,15.23
2022-09-02T07:47:02.984Z,13.97
2022-09-02T07:48:15.997Z,15.47
2022-09-02T07:49:27.997Z,17.73
2022-09-02T07:50:39.668Z,16.60
2022-09-02T07:51:51.484Z,16.67
2022-09-02T07:53:06.480Z,16.30
2022-09-02T07:54:19.749Z,15.40
2022-09-02T07:55:31.249Z,14.53
2022-09-02T07:56:43.372Z,15.93
2022-09-02T07:57:55.411Z,15.87
2022-09-02T07:59:07.143Z,14.23
2022-09-02T08:00:20.012Z,14.60
2022-09-02T08:01:32.360Z,14.87
2022-09-02T08:02:44.726Z,13.47
2022-09-02T08:03:56.584Z,12.77
2022-09-02T08:05:08.262Z,14.23
2022-09-02T08:06:29.717Z,13.90
2022-09-02T08:07:46.493Z,13.77
2022-09-02T08:08:57.970Z,12.37
2022-09-02T08:10:11.108Z,11.70
2022-09-02T08:11:23.706Z,12.97
2022-09-02T08:12:35.233Z,10.53
2022-09-02T08:13:46.744Z,13.23
2022-09-02T08:14:58.829Z,13.80
2022-09-02T08:16:10.426Z,12.70
2022-09-02T08:17:21.937Z,12.97
2022-09-02T08:18:33.832Z,12.40
2022-09-02T08:19:45.349Z,11.77
2022-09-02T08:20:56.920Z,13.33
2022-09-02T08:22:08.409Z,13.23
2022-09-02T08:23:36.137Z,12.13
2022-09-02T08:24:48.877Z,13.00
2022-09-02T08:26:00.816Z,11.07
2022-09-02T08:27:12.353Z,12.57
2022-09-02T08:28:23.977Z,11.87
2022-09-02T08:29:35.593Z,11.47
2022-09-02T08:30:47.097Z,12.63
2022-09-02T08:31:58.662Z,12.90
2022-09-02T08:33:10.144Z,13.50
2022-09-02T08:34:21.709Z,13.37
2022-09-02T08:35:33.237Z,16.33
2022-09-02T08:36:45.347Z,14.53
2022-09-02T08:38:07.984Z,67.07
2022-09-02T08:39:19.515Z,15.37
2022-09-02T08:40:35.073Z,13.07
2022-09-02T08:41:55.099Z,13.63
2022-09-02T08:43:20.942Z,12.10
2022-09-02T08:44:34.142Z,12.80
2022-09-02T08:45:45.824Z,12.63
2022-09-02T08:47:01.340Z,12.70
2022-09-02T08:48:23.928Z,13.90
2022-09-02T08:49:38.942Z,12.17
2022-09-02T08:50:52.345Z,54.73
2022-09-02T08:52:05.217Z,24.33
2022-09-02T08:53:19.734Z,12.10
2022-09-02T08:54:32.346Z,12.60
2022-09-02T08:55:54.219Z,30.53
2022-09-02T08:57:05.769Z,10.87
2022-09-02T08:58:19.633Z,26.90
2022-09-02T08:59:31.665Z,12.30
2022-09-02T09:00:46.405Z,13.80
2022-09-02T09:02:09.561Z,36.37
2022-09-02T09:03:30.628Z,12.10
2022-09-02T09:05:00.717Z,11.47
2022-09-02T09:06:16.683Z,10.43
2022-09-02T09:07:48.579Z,14.13
2022-09-02T09:09:23.988Z,11.03
2022-09-02T09:10:44.279Z,26.53
2022-09-02T09:12:08.159Z,14.30
2022-09-02T09:13:22.652Z,11.90
2022-09-02T09:14:50.460Z,34.57
2022-09-02T09:16:14.923Z,11.43
2022-09-02T09:17:32.408Z,10.07
2022-09-02T09:18:49.670Z,11.23
2022-09-02T09:20:03.658Z,11.53
2022-09-02T09:21:15.270Z,11.47
2022-09-02T09:22:31.097Z,13.23
2022-09-02T09:23:42.754Z,10.80
2022-09-02T09:24:57.093Z,10.53
2022-09-02T09:26:10.224Z,10.80
2022-09-02T09:27:23.055Z,11.50
2022-09-02T09:28:40.763Z,10.50
2022-09-02T09:29:52.681Z,11.60
2022-09-02T09:31:04.987Z,11.97
2022-09-02T09:32:25.633Z,12.10
2022-09-02T09:33:37.145Z,14.03
2022-09-02T09:34:57.137Z,13.50
2022-09-02T09:36:10.099Z,14.13
2022-09-02T09:37:38.967Z,15.20
2022-09-02T09:38:50.471Z,11.97
2022-09-02T09:40:02.071Z,13.67
2022-09-02T09:41:19.005Z,12.77
2022-09-02T09:42:32.134Z,13.03
2022-09-02T09:43:43.709Z,13.57
2022-09-02T09:44:55.218Z,13.10
2022-09-02T09:46:26.925Z,13.83
2022-09-02T09:47:38.610Z,12.53
2022-09-02T09:48:51.600Z,13.40
2022-09-02T09:50:19.150Z,13.90
2022-09-02T09:51:31.380Z,14.30
2022-09-02T09:53:34.207Z,13.57
2022-09-02T09:54:45.707Z,14.40
2022-09-02T09:55:58.776Z,13.17
2022-09-02T09:57:15.936Z,13.17
2022-09-02T09:58:37.172Z,13.67
2022-09-02T09:59:50.048Z,12.90
2022-09-02T10:01:11.654Z,14.07
2022-09-02T10:02:24.576Z,12.07
2022-09-02T10:03:36.412Z,12.83
2022-09-02T10:04:48.242Z,7.70
2022-09-02T10:06:17.034Z,11.13
2022-09-02T10:07:54.948Z,20.43
2022-09-02T10:09:26.689Z,13.00
2022-09-02T10:10:38.797Z,10.83
2022-09-02T10:12:05.851Z,12.00
2022-09-02T10:13:20.499Z,12.10
2022-09-02T10:14:34.336Z,11.70
2022-09-02T10:15:48.678Z,12.20
2022-09-02T10:17:00.154Z,11.73
2022-09-02T10:18:35.076Z,12.70
2022-09-02T10:20:04.463Z,12.27
2022-09-02T10:21:28.626Z,11.63
2022-09-02T10:22:59.875Z,10.50
2022-09-02T10:24:31.903Z,10.83
2022-09-02T10:25:49.230Z,11.77
2022-09-02T10:27:03.960Z,10.90
2022-09-02T10:28:16.193Z,11.07
2022-09-02T10:29:40.112Z,10.97
2022-09-02T10:30:57.821Z,11.80
2022-09-02T10:32:12.162Z,12.17
2022-09-02T10:33:42.334Z,11.10
2022-09-02T10:35:16.332Z,13.53
2022-09-02T10:36:39.994Z,13.53
2022-09-02T10:38:09.650Z,15.17
2022-09-02T10:39:40.236Z,11.57
2022-09-02T10:41:07.294Z,11.70
2022-09-02T10:42:34.881Z,13.07
2022-09-02T10:43:46.399Z,14.00
2022-09-02T10:45:05.656Z,13.37
2022-09-02T10:46:22.313Z,13.23
2022-09-02T10:47:37.798Z,13.27
2022-09-02T10:48:56.971Z,12.80
2022-09-02T10:50:23.798Z,12.97
2022-09-02T10:51:38.533Z,15.57
2022-09-02T10:52:52.882Z,17.53
2022-09-02T10:54:09.812Z,21.37
2022-09-02T10:55:22.039Z,22.97
2022-09-02T10:56:35.669Z,13.57
2022-09-02T10:57:53.970Z,13.43
2022-09-02T10:59:10.771Z,14.97
2022-09-02T11:00:23.623Z,13.70
2022-09-02T11:01:35.513Z,13.50
2022-09-02T11:03:05.652Z,14.00
2022-09-02T11:04:34.334Z,23.17
2022-09-02T11:05:54.432Z,13.67
2022-09-02T11:07:10.895Z,12.97
2022-09-02T11:08:39.029Z,12.63
2022-09-02T11:09:54.694Z,46.27
2022-09-02T11:11:16.103Z,18.50
2022-09-02T11:12:36.165Z,16.70
2022-09-02T11:13:47.669Z,14.87
2022-09-02T11:15:01.860Z,15.73
2022-09-02T11:16:21.390Z,12.90
2022-09-02T11:17:32.916Z,13.37
2022-09-02T11:18:48.414Z,13.83
2022-09-02T11:20:00.288Z,13.93
2022-09-02T11:21:32.138Z,14.50
2022-09-02T11:22:55.500Z,14.73
2022-09-02T11:24:16.053Z,13.83
2022-09-02T11:25:34.384Z,13.90
2022-09-02T11:26:53.973Z,13.87
2022-09-02T11:28:25.197Z,14.93
2022-09-02T11:29:39.773Z,16.20
2022-09-02T11:32:13.999Z,13.63
2022-09-02T11:33:38.545Z,13.83
2022-09-02T11:34:52.109Z,12.80
2022-09-02T11:36:04.009Z,13.83
2022-09-02T11:37:44.780Z,11.57
2022-09-02T11:39:00.105Z,12.27
2022-09-02T11:40:33.327Z,13.90
2022-09-02T11:41:56.797Z,13.20
2022-09-02T11:43:23.521Z,13.67
2022-09-02T11:44:52.745Z,11.80
2022-09-02T11:46:04.910Z,11.27
2022-09-02T11:47:25.781Z,11.20
2022-09-02T11:48:37.707Z,11.23
2022-09-02T11:49:49.308Z,11.07
2022-09-02T11:51:01.266Z,12.10
2022-09-02T11:52:12.724Z,11.00
2022-09-02T11:53:28.214Z,12.93
2022-09-02T11:54:41.657Z,11.80
2022-09-02T11:55:59.349Z,11.53
2022-09-02T11:57:13.211Z,10.67
2022-09-02T11:58:30.782Z,11.83
2022-09-02T11:59:51.200Z,11.13
2022-09-02T12:01:15.717Z,13.37
2022-09-02T12:02:43.457Z,10.40
2022-09-02T12:05:30.153Z,12.63
2022-09-02T12:07:04.377Z,9.43
2022-09-02T12:08:27.554Z,8.70
2022-09-02T12:09:47.076Z,10.33
2022-09-02T12:11:01.225Z,11.57
2022-09-02T12:12:31.949Z,10.73
2022-09-02T12:13:45.756Z,9.33
2022-09-02T12:14:58.924Z,11.33
2022-09-02T12:16:13.333Z,11.30
2022-09-02T12:17:43.680Z,9.40
2022-09-02T12:18:55.136Z,10.07
2022-09-02T12:20:08.521Z,8.50
2022-09-02T12:21:23.113Z,10.43
2022-09-02T12:22:39.025Z,11.07
2022-09-02T12:23:56.847Z,9.97
2022-09-02T12:25:27.288Z,11.67
2022-09-02T12:26:38.936Z,10.67
2022-09-02T12:27:50.770Z,9.53
2022-09-02T12:29:12.967Z,9.80
2022-09-02T12:30:43.653Z,9.33
2022-09-02T12:31:56.279Z,9.43
2022-09-02T12:33:13.591Z,10.10
2022-09-02T12:34:25.353Z,9.47
2022-09-02T12:35:40.373Z,9.40
2022-09-02T12:36:54.929Z,9.70
2022-09-02T12:38:12.429Z,9.37
2022-09-02T12:39:30.603Z,11.30
2022-09-02T12:40:51.316Z,11.30
2022-09-02T12:42:12.022Z,10.47
2022-09-02T12:43:26.888Z,9.70
2022-09-02T12:44:58.359Z,9.30
2022-09-02T12:46:13.225Z,10.13
2022-09-02T12:47:25.658Z,9.67
2022-09-02T12:48:40.701Z,8.97
2022-09-02T12:50:03.512Z,8.87
2022-09-02T12:51:35.145Z,8.57
2022-09-02T12:52:48.735Z,8.87
2022-09-02T12:54:00.557Z,10.07
2022-09-02T12:55:18.338Z,11.20
2022-09-02T12:56:29.932Z,8.70
2022-09-02T12:57:42.927Z,8.67
2022-09-02T12:59:00.174Z,9.17
2022-09-02T13:00:37.591Z,8.60
2022-09-02T13:02:01.196Z,8.67
2022-09-02T13:03:22.010Z,7.57
2022-09-02T13:04:52.430Z,7.23
2022-09-02T13:06:19.546Z,6.87
2022-09-02T13:08:03.646Z,7.83
2022-09-02T13:09:31.654Z,8.27
2022-09-02T13:11:22.019Z,7.30
2022-09-02T13:12:52.277Z,7.30
2022-09-02T13:14:22.668Z,7.57
2022-09-02T13:15:40.196Z,7.33
2022-09-02T13:17:35.701Z,8.00
2022-09-02T13:19:00.512Z,6.37
2022-09-02T13:20:30.543Z,7.93
2022-09-02T13:21:51.391Z,7.20
2022-09-02T13:23:05.773Z,7.03
2022-09-02T13:24:20.876Z,7.33
2022-09-02T13:25:41.509Z,7.40
2022-09-02T13:26:53.076Z,7.20
2022-09-02T13:28:23.949Z,7.97
2022-09-02T13:29:44.451Z,7.97
2022-09-02T13:31:01.818Z,7.90
2022-09-02T13:32:15.923Z,6.87
2022-09-02T13:33:27.555Z,7.20
2022-09-02T13:34:43.838Z,7.23
2022-09-02T13:35:58.680Z,7.60
2022-09-02T13:37:29.312Z,7.60
2022-09-02T13:38:40.963Z,7.17
2022-09-02T13:39:52.581Z,7.23
2022-09-02T13:41:04.318Z,8.13
2022-09-02T13:42:17.893Z,8.40
2022-09-02T13:43:31.156Z,7.67
2022-09-02T13:44:42.750Z,6.77
2022-09-02T13:46:01.759Z,7.53
2022-09-02T13:47:17.862Z,7.30
2022-09-02T13:48:31.893Z,7.60
2022-09-02T13:49:45.769Z,7.03
2022-09-02T13:51:00.349Z,7.00
2022-09-02T13:52:51.165Z,7.50
2022-09-02T13:54:21.486Z,7.00
2022-09-02T13:55:26.228Z,6.37
2022-09-02T13:56:37.776Z,6.83
2022-09-02T13:58:00.190Z,7.73
2022-09-02T13:59:14.778Z,7.13
2022-09-02T14:00:28.080Z,6.40
2022-09-02T14:01:40.265Z,7.23
2022-09-02T14:03:00.020Z,6.70
2022-09-02T14:04:14.934Z,6.67
2022-09-02T14:05:27.642Z,6.83
2022-09-02T14:06:41.583Z,6.67
2022-09-02T14:07:57.785Z,7.37
2022-09-02T14:09:18.051Z,6.60
2022-09-02T14:10:31.405Z,7.47
2022-09-02T14:11:45.790Z,7.07
2022-09-02T14:12:58.289Z,7.97
2022-09-02T14:14:14.398Z,7.13
2022-09-02T14:15:27.688Z,7.47
2022-09-02T14:16:39.296Z,7.73
2022-09-02T14:18:09.586Z,7.97
2022-09-02T14:19:21.062Z,7.57
2022-09-02T14:20:32.612Z,7.23
2022-09-02T14:21:46.012Z,7.73
2022-09-02T14:22:58.819Z,7.93
2022-09-02T14:24:12.397Z,7.97
2022-09-02T14:25:27.408Z,7.07
2022-09-02T14:26:42.145Z,7.83
2022-09-02T14:27:54.840Z,7.47
2022-09-02T14:29:06.906Z,8.10
2022-09-02T14:30:32.172Z,7.80
2022-09-02T14:31:44.337Z,7.50
2022-09-02T14:33:14.473Z,7.37
2022-09-02T14:34:36.308Z,7.27
2022-09-02T14:36:06.397Z,7.10
2022-09-02T14:37:22.760Z,7.33
2022-09-02T14:38:37.170Z,6.90
2022-09-02T14:39:52.592Z,6.70
2022-09-02T14:41:18.984Z,7.57
2022-09-02T14:42:30.873Z,6.30
2022-09-02T14:43:45.195Z,7.20
2022-09-02T14:44:59.512Z,6.17
2022-09-02T14:46:15.696Z,6.80
2022-09-02T14:47:28.370Z,6.17
2022-09-02T14:48:40.179Z,6.50
2022-09-02T14:49:53.194Z,6.37
2022-09-02T14:51:06.149Z,6.67
2022-09-02T14:52:23.269Z,6.33
2022-09-02T14:53:37.977Z,6.70
2022-09-02T14:54:51.212Z,7.07
2022-09-02T14:56:02.858Z,6.87
2022-09-02T14:57:23.708Z,6.57
2022-09-02T14:58:36.526Z,5.83
2022-09-02T14:59:48.566Z,6.33
2022-09-02T15:01:00.905Z,5.93
2022-09-02T15:02:46.483Z,6.67
2022-09-02T15:03:58.468Z,7.10
2022-09-02T15:05:14.613Z,5.90
2022-09-02T15:06:26.185Z,5.83
2022-09-02T15:07:37.726Z,5.87
2022-09-02T15:08:49.380Z,5.63
2022-09-02T15:10:00.919Z,6.23
2022-09-02T15:11:14.642Z,5.63
2022-09-02T15:12:33.576Z,5.60
2022-09-02T15:13:45.275Z,5.43
2022-09-02T15:14:56.990Z,4.60
2022-09-02T15:16:09.460Z,4.07
2022-09-02T15:17:21.449Z,4.77
2022-09-02T15:18:32.979Z,4.23
2022-09-02T15:19:44.491Z,4.67
2022-09-02T15:20:56.113Z,4.57
2022-09-02T15:22:07.609Z,4.43
2022-09-02T15:23:19.609Z,4.40
2022-09-02T15:24:31.889Z,4.00
2022-09-02T15:25:43.462Z,3.97
2022-09-02T15:26:54.989Z,3.00
2022-09-02T15:28:06.544Z,3.90
2022-09-02T15:29:19.668Z,3.30
2022-09-02T15:30:33.758Z,4.67
2022-09-02T15:31:45.704Z,3.50
2022-09-02T15:32:57.622Z,4.57
2022-09-02T15:34:09.467Z,3.63
2022-09-02T15:35:21.057Z,4.00
2022-09-02T15:36:32.607Z,3.03
2022-09-02T15:37:44.100Z,3.47
2022-09-02T15:38:55.706Z,3.53
2022-09-02T15:40:08.274Z,3.77
2022-09-02T15:41:21.353Z,3.67
2022-09-02T15:42:37.791Z,4.40
2022-09-02T15:43:49.426Z,4.07
2022-09-02T15:45:02.430Z,3.80
2022-09-02T15:46:17.005Z,4.53
2022-09-02T15:47:30.566Z,4.67
2022-09-02T15:48:42.069Z,3.80
2022-09-02T15:49:53.574Z,4.40
2022-09-02T15:51:10.961Z,4.27
2022-09-02T15:52:24.316Z,4.03
2022-09-02T15:53:35.795Z,3.73
2022-09-02T15:54:47.290Z,4.43
2022-09-02T15:55:58.767Z,3.70
2022-09-02T15:57:11.645Z,5.03
2022-09-02T15:58:23.288Z,3.93
2022-09-02T15:59:34.797Z,4.47
2022-09-02T16:00:46.324Z,4.40
2022-09-02T16:02:00.988Z,4.73
2022-09-02T16:03:12.566Z,4.37
2022-09-02T16:04:24.152Z,4.43
2022-09-02T16:05:36.436Z,4.27
2022-09-02T16:06:49.160Z,4.73
2022-09-02T16:08:01.612Z,4.53
2022-09-02T16:09:14.371Z,4.00
2022-09-02T16:10:25.934Z,3.50
2022-09-02T16:11:38.534Z,4.67
2022-09-02T16:12:50.112Z,3.90
2022-09-02T16:14:01.615Z,4.30
2022-09-02T16:15:13.149Z,4.17
2022-09-02T16:16:25.021Z,4.13
2022-09-02T16:17:37.008Z,4.50
2022-09-02T16:18:52.615Z,4.70
2022-09-02T16:20:05.078Z,5.07